createdAt,value
2022-11-28T00:03:22.776Z,96.32
2022-11-28T00:13:25.878Z,96.26
2022-11-28T00:23:30.285Z,95.36
2022-11-28T00:33:33.319Z,95.61
2022-11-28T00:43:38.209Z,95.36
2022-11-28T00:53:42.467Z,95.38
2022-11-28T01:03:47.518Z,93.78
2022-11-28T01:13:51.063Z,94.45
2022-11-28T01:23:55.113Z,93.90
2022-11-28T01:33:58.824Z,93.67
2022-11-28T01:44:07.155Z,93.01
2022-11-28T01:54:09.902Z,93.66
2022-11-28T02:04:15.058Z,94.13
2022-11-28T02:14:32.054Z,93.71
2022-11-28T02:25:04.250Z,92.49
2022-11-28T02:35:15.941Z,92.05
2022-11-28T02:45:27.586Z,92.59
2022-11-28T02:55:32.239Z,89.82
2022-11-28T03:05:43.706Z,90.80
2022-11-28T03:15:56.952Z,89.58
2022-11-28T03:26:02.611Z,89.88
2022-11-28T03:36:10.237Z,88.98
2022-11-28T03:46:16.914Z,90.35
2022-11-28T03:56:25.166Z,90.22
2022-11-28T04:06:32.743Z,87.48
2022-11-28T04:16:42.882Z,90.15
2022-11-28T04:26:49.801Z,89.98
2022-11-28T04:36:55.442Z,88.31
2022-11-28T04:46:59.293Z,89.10
2022-11-28T04:57:11.082Z,90.65
2022-11-28T05:07:14.318Z,88.84
2022-11-28T05:17:18.414Z,88.91
2022-11-28T05:27:21.078Z,88.70
2022-11-28T05:37:25.442Z,90.25
2022-11-28T05:47:30.564Z,89.82
2022-11-28T05:57:34.566Z,90.94
2022-11-28T06:07:37.286Z,91.27
2022-11-28T06:17:41.367Z,92.63
2022-11-28T06:27:43.991Z,91.98
2022-11-28T06:37:47.957Z,93.74
2022-11-28T06:47:50.584Z,93.45
2022-11-28T06:57:54.569Z,95.03
2022-11-28T07:07:57.331Z,94.33
2022-11-28T07:18:01.351Z,95.09
2022-11-28T07:28:04.045Z,94.81
2022-11-28T07:38:08.123Z,95.04
2022-11-28T07:48:10.936Z,96.42
2022-11-28T07:58:15.003Z,95.72
2022-11-28T08:08:18.146Z,95.50
2022-11-28T08:18:22.232Z,95.73
2022-11-28T08:28:24.860Z,96.10
2022-11-28T08:38:28.867Z,94.93
2022-11-28T08:48:31.666Z,94.00
2022-11-28T08:58:35.976Z,95.28
2022-11-28T09:08:38.786Z,93.79
2022-11-28T09:18:43.057Z,95.65
2022-11-28T09:28:46.386Z,95.75
2022-11-28T09:38:51.157Z,94.37
2022-11-28T09:48:59.157Z,94.96
2022-11-28T09:59:04.319Z,93.86
2022-11-28T10:09:25.578Z,94.09
2022-11-28T10:19:57.401Z,93.40
2022-11-28T10:30:02.149Z,94.52
2022-11-28T10:40:19.210Z,93.52
2022-11-28T10:50:32.547Z,94.78
2022-11-28T11:00:38.299Z,93.62
2022-11-28T11:10:46.118Z,94.22
2022-11-28T11:20:50.504Z,94.04
2022-11-28T11:31:00.035Z,94.37
2022-11-28T11:41:26.684Z,94.20
2022-11-28T11:51:37.955Z,94.65
2022-11-28T12:01:45.748Z,94.53
2022-11-28T12:11:52.988Z,94.92
2022-11-28T12:22:12.030Z,95.67
2022-11-28T12:32:27.489Z,96.14
2022-11-28T12:42:49.054Z,95.75
2022-11-28T12:53:00.952Z,95.94
2022-11-28T13:03:23.377Z,94.96
2022-11-28T13:13:32.077Z,95.57
2022-11-28T13:23:44.563Z,96.13
2022-11-28T13:33:52.117Z,95.61
2022-11-28T13:44:02.988Z,96.56
2022-11-28T13:54:48.680Z,96.94
2022-11-28T14:04:53.327Z,97.10
2022-11-28T14:15:10.039Z,96.73
2022-11-28T14:25:20.303Z,97.14
2022-11-28T14:36:01.771Z,97.42
2022-11-28T14:46:35.942Z,97.29
2022-11-28T14:56:41.322Z,96.98
2022-11-28T15:06:48.056Z,97.39
2022-11-28T15:16:53.096Z,96.91
2022-11-28T15:26:59.256Z,96.97
2022-11-28T15:37:03.986Z,97.52
2022-11-28T15:47:18.838Z,97.28
2022-11-28T15:57:23.972Z,97.57
2022-11-28T16:07:28.120Z,97.78
2022-11-28T16:17:34.253Z,98.10
2022-11-28T16:27:41.517Z,97.90
2022-11-28T16:37:44.258Z,97.67
2022-11-28T16:47:55.109Z,97.56
2022-11-28T16:58:03.692Z,98.03
2022-11-28T17:08:08.827Z,97.49
2022-11-28T17:18:11.582Z,97.90
2022-11-28T17:28:20.810Z,98.11
2022-11-28T17:38:24.337Z,98.29
2022-11-28T17:48:28.333Z,97.97
2022-11-28T17:58:31.030Z,98.32
2022-11-28T18:08:35.041Z,98.14
2022-11-28T18:18:38.316Z,98.28
2022-11-28T18:28:43.101Z,98.34
2022-11-28T18:38:45.807Z,98.17
2022-11-28T18:48:50.349Z,98.48
2022-11-28T18:58:54.417Z,98.66
2022-11-28T19:09:00.453Z,98.50
2022-11-28T19:19:04.292Z,98.60
2022-11-28T19:29:08.890Z,98.51
2022-11-28T19:39:16.825Z,98.68
2022-11-28T19:49:22.901Z,98.52
2022-11-28T19:59:27.216Z,98.27
2022-11-28T20:09:31.430Z,98.40
2022-11-28T20:19:34.144Z,98.61
2022-11-28T20:29:38.182Z,98.42
2022-11-28T20:39:40.897Z,98.48
2022-11-28T20:49:45.145Z,98.52
2022-11-28T20:59:48.700Z,98.76
2022-11-28T21:09:53.991Z,98.48
2022-11-28T21:19:56.699Z,98.55
2022-11-28T21:30:00.702Z,98.77
2022-11-28T21:40:04.943Z,98.67
2022-11-28T21:50:10.306Z,98.64
2022-11-28T22:00:38.323Z,98.63
2022-11-28T22:10:39.588Z,99.02
2022-11-28T22:20:45.764Z,99.20
2022-11-28T22:30:51.741Z,99.00
2022-11-28T22:40:54.350Z,99.06
2022-11-28T22:50:58.493Z,98.77
2022-11-28T23:01:01.142Z,98.76
2022-11-28T23:11:07.942Z,98.63
2022-11-28T23:21:11.710Z,98.71
2022-11-28T23:31:18.296Z,98.98
2022-11-28T23:41:21.904Z,99.16
2022-11-28T23:51:27.410Z,99.06
